DONNÉES MÉTÉO

AUJOURD'HUI
Time Temp. Dewp. Hum. Directi La vitess Wind gust Bar. 1h Prec. 24h Prec.
00:09 16.6 11.7 73 315 0.3 1.1 1012 0.0000 0.0000
00:19 16.4 11.6 73 270 0.3 0.8 1012 0.0000 0.0000
00:23 16.4 11.6 73 303 0.3 0.8 1012.1 0.0000 0.0000
00:33 16.2 11.4 73 270 0.3 0.8 1012.1 0.0000 0.0000
00:44 16.2 11.4 73 270 0.3 0.8 1012.1 0.0000 0.0000
00:53 16.2 11.6 74 270 0.3 0.8 1012.2 0.0000 0.0000
01:03 16.1 11.5 74 270 0.3 1.1 1012.1 0.0000 0.0000
01:14 16.1 11.5 74 270 0.3 1.1 1012.2 0.0000 0.0000
01:24 16 11.4 74 270 0.3 0.8 1012.1 0.0000 0.0000
01:34 16 11.4 74 270 0.3 0.8 1012.2 0.0000 0.0000
01:43 16 11.4 74 270 0.3 1.1 1012.3 0.0000 0.0000
01:54 16 11.6 75 270 0.3 0.8 1012.1 0.0000 0.0000
02:04 15.9 11.5 75 270 0.3 0.8 1012.1 0.0000 0.0000
02:14 15.9 11.5 75 270 0.3 0.8 1012.2 0.0000 0.0000
02:24 15.8 11.4 75 270 0.3 1.1 1012.3 0.0000 0.0000
02:34 15.7 11.1 74 0 0.3 0.8 1012.1 0.0000 0.0000
02:44 15.5 10.9 74 270 0.3 0.8 1012.1 0.0000 0.0000
02:54 15.4 10.8 74 270 0.3 1.1 1012.2 0.0000 0.0000
03:05 15.3 10.7 74 270 0.3 0.8 1012 0.0000 0.0000
03:14 15.2 10.6 74 348 0.3 0.8 1012.2 0.0000 0.0000
03:24 15.1 10.5 74 270 0.3 0.8 1012.2 0.0000 0.0000
03:34 15 10.4 74 270 0.3 1.1 1012.2 0.0000 0.0000
03:45 15 10.4 74 270 0.3 0.8 1012.2 0.0000 0.0000
03:55 14.9 10.3 74 270 0.3 0.8 1012.2 0.0000 0.0000
04:04 14.9 10.3 74 270 0.3 0.8 1012.3 0.0000 0.0000
04:15 14.9 10.5 75 270 0.3 0.8 1012.2 0.0000 0.0000
04:25 14.8 10.2 74 270 0.3 0.8 1012.2 0.0000 0.0000
04:35 14.7 10.1 74 315 0.3 0.8 1012.2 0.0000 0.0000
04:45 14.7 10.3 75 270 0.3 0.8 1012 0.0000 0.0000
04:55 14.7 10.3 75 23 0.3 0.8 1012 0.0000 0.0000
05:05 14.6 10.2 75 270 0.3 0.8 1011.8 0.0000 0.0000
05:15 14.6 10.4 76 270 0.3 0.8 1011.9 0.0000 0.0000
05:26 14.6 10.4 76 315 0.3 0.8 1011.9 0.0000 0.0000
05:36 14.5 10.3 76 315 0.3 0.8 1011.8 0.0000 0.0000
05:45 14.5 10.3 76 270 0.3 0.8 1011.9 0.0000 0.0000
05:55 14.4 10.2 76 90 0.3 1.1 1011.9 0.0000 0.0000
06:06 14.2 9.8 75 270 0.3 0.8 1011.9 0.0000 0.0000
06:16 14.2 9.8 75 270 0.3 0.8 1012.1 0.0000 0.0000
06:26 14 9.6 75 270 0.3 0.8 1012.2 0.0000 0.0000
06:36 14 9.6 75 270 0.3 1.1 1012.2 0.0000 0.0000
06:46 14 9.6 75 225 0.3 0.8 1012.1 0.0000 0.0000
06:56 13.9 9.5 75 270 0.3 0.8 1012.2 0.0000 0.0000
07:06 13.9 9.5 75 270 0.3 0.8 1012.3 0.0000 0.0000
07:17 13.9 9.5 75 270 0.3 0.8 1012.4 0.0000 0.0000
07:26 13.9 9.5 75 270 0.3 1.1 1012.7 0.0000 0.0000
07:36 13.9 9.7 76 270 0.3 1.1 1012.8 0.0000 0.0000
07:47 14 9.8 76 270 0.3 0.8 1012.7 0.0000 0.0000
07:57 14 9.8 76 315 0.3 0.8 1012.9 0.0000 0.0000
08:07 14 9.8 76 270 0.3 0.8 1013 0.0000 0.0000
08:16 14.1 9.9 76 18 0.3 0.8 1013.1 0.0000 0.0000
08:27 14.1 9.9 76 270 0.3 0.8 1012.9 0.0000 0.0000
08:37 14.2 10.2 77 270 0.3 0.8 1013.1 0.0000 0.0000
08:47 14.3 10.3 77 315 0.3 0.8 1013.3 0.0000 0.0000
08:57 14.4 10.4 77 45 0.3 0.8 1013.2 0.0000 0.0000
09:07 14.5 10.5 77 30 0.3 1.1 1013.1 0.0000 0.0000
09:17 14.6 10.6 77 270 0.3 0.8 1013.3 0.0000 0.0000
09:27 14.7 10.9 78 348 0.3 1.1 1013.3 0.0000 0.0000
09:38 14.9 11.1 78 270 0.3 0.8 1013.2 0.0000 0.0000
09:47 15.1 11.3 78 45 0.3 1.1 1013.3 0.0000 0.0000
09:57 15.5 11.9 79 45 0.3 1.1 1013.4 0.0000 0.0000
10:07 16.1 12.5 79 0 0.3 1.1 1013.2 0.0000 0.0000
10:18 17 13.3 79 315 0.3 0.8 1013.1 0.0000 0.0000
10:28 17.4 13.5 78 315 0.3 1.1 1013.2 0.0000 0.0000
10:37 17.9 13.8 77 39 0.3 1.4 1013.2 0.0000 0.0000
10:48 18.3 14 76 270 0.3 1.1 1013.2 0.0000 0.0000
10:58 18.5 14 75 229 0.3 1.1 1013.3 0.0000 0.0000
11:08 18.5 13.8 74 90 0.3 1.1 1013.1 0.0000 0.0000
11:18 18.6 13.9 74 232 0.3 1.4 1013.2 0.0000 0.0000
11:28 18.7 14 74 90 0.3 1.1 1013.4 0.0000 0.0000
11:38 18.7 14 74 0.3 1.1 1013.3 0.0000 0.0000
11:48 18.6 13.9 74 270 0.3 0.8 1013.2 0.0000 0.0000
11:59 18.7 14 74 270 0.3 1.1 1013.2 0.0000 0.0000
12:08 19.8 15.5 76 45 0.3 1.4 1013.2 0.0000 0.0000
12:18 21.2 16 72 270 0.3 1.4 1013.2 0.0000 0.0000
12:28 21.2 15.3 69 270 0.3 1.1 1013.1 0.0000 0.0000
12:39 21 14.9 68 315 0.3 1.1 1012.9 0.0000 0.0000
12:49 20.7 14.6 68 270 0.3 1.1 1012.9 0.0000 0.0000
12:58 20.6 14.5 68 0 0.3 1.1 1012.8 0.0000 0.0000
13:09 20.4 13.8 66 270 0.3 1.1 1012.8 0.0000 0.0000
13:19 20.4 13.8 66 198 0.8 1.9 1012.6 0.0000 0.0000
13:29 20.4 14.1 67 11 0.3 1.1 1012.8 0.0000 0.0000
13:39 20.5 13.9 66 135 0.3 2.2 1012.8 0.0000 0.0000
13:49 20.6 14 66 188 0.3 0.8 1012.6 0.0000 0.0000
13:59 20.7 13.7 64 225 0.3 1.1 1012.6 0.0000 0.0000
14:09 20.9 13.8 64 237 0.3 1.4 1012.5 0.0000 0.0000
14:20 21 13.9 64 270 0.3 1.4 1012.5 0.0000 0.0000
14:29 21.2 14.4 65 270 0.3 1.4 1012.3 0.0000 0.0000
14:39 21.5 14.2 63 239 0.3 1.4 1012.3 0.0000 0.0000
14:49 21.7 14.4 63 234 0.3 1.4 1012.4 0.0000 0.0000
15:00 21.7 14.4 63 329 0.3 1.4 1012.3 0.0000 0.0000
15:10 21.9 14.5 63 270 0.3 1.4 1012.1 0.0000 0.0000
15:19 22 14.4 62 270 0.3 1.4 1012.1 0.0000 0.0000
15:30 21.8 14.2 62 270 0.3 1.4 1012.1 0.0000 0.0000
15:40 21.6 14 62 270 0.3 1.1 1012 0.0000 0.0000
15:50 21.4 13.8 62 270 0.8 1.4 1012.1 0.0000 0.0000
16:00 21.5 14.2 63 270 0.8 1.4 1011.9 0.0000 0.0000
16:10 21.5 14.2 63 270 0.3 1.1 1011.8 0.0000 0.0000
16:20 21.7 14.4 63 251 0.8 1.9 1011.5 0.0000 0.0000
16:30 21.8 14.2 62 270 0.3 1.4 1011.6 0.0000 0.0000
16:41 21.9 14 61 270 0.3 1.4 1011.5 0.0000 0.0000
16:50 22 14.1 61 240 0.3 1.1 1011.4 0.0000 0.0000
17:00 22 14.1 61 270 0.3 1.4 1011.3 0.0000 0.0000
17:10 22 14.1 61 270 0.3 1.4 1011.4 0.0000 0.0000
17:21 22 14.1 61 270 0.8 1.9 1011.3 0.0000 0.0000
17:31 21.9 14 61 270 0.3 1.1 1011.3 0.0000 0.0000
17:40 21.8 14 61 270 0.8 1.9 1011.3 0.0000 0.0000
17:51 21.7 13.9 61 270 0.8 1.4 1011.2 0.0000 0.0000
18:01 21.6 13.8 61 270 0.3 1.4 1011.3 0.0000 0.0000
18:11 21.5 13.9 62 270 0.3 1.1 1011.3 0.0000 0.0000
18:21 21.4 13.8 62 270 0.3 1.1 1011.2 0.0000 0.0000
18:31 21.2 13.6 62 282 0.8 1.4 1011.2 0.0000 0.0000
18:41 21.1 13.8 63 283 0.8 1.4 1011.4 0.0000 0.0000
18:51 21 13.7 63 284 0.8 1.4 1011.4 0.0000 0.0000
19:01 20.8 13.5 63 270 0.8 1.4 1011.2 0.0000 0.0000
19:12 20.7 13.7 64 285 0.8 1.1 1011.3 0.0000 0.0000
19:21 20.5 13.5 64 289 0.8 1.1 1011.3 0.0000 0.0000
19:31 20.4 13.4 64 294 0.8 1.1 1011.3 0.0000 0.0000
19:42 20.2 13.2 64 291 0.8 1.1 1011.2 0.0000 0.0000
19:52 20 13 64 285 0.8 1.1 1011.2 0.0000 0.0000
20:02 19.9 12.9 64 315 0.8 1.1 1011.2 0.0000 0.0000
20:12 19.8 13 65 298 0.8 1.9 1011.1 0.0000 0.0000
20:22 19.6 12.8 65 310 0.8 1.1 1011.2 0.0000 0.0000
20:32 19.5 12.8 65 295 0.8 1.4 1011.4 0.0000 0.0000
20:42 19.3 12.8 66 289 0.8 1.1 1011.4 0.0000 0.0000
20:52 19.2 12.7 66 297 0.8 1.1 1011.6 0.0000 0.0000
21:02 19 12.5 66 289 0.8 1.4 1011.5 0.0000 0.0000

SATISTIQUES DU JOUR

2021-09-18
TEMPÉRATURE
MOYEN
17.8
MAXI
22.0
15:19
MINI
13.9
06:56
PRESSION
MOYEN
1012.2
MAXI
1013.4
09:57
MINI
1011.1
20:12
POINT DE ROSÉE
MOYEN
12.3
MAXI
16.0
12:18
MINI
9.5
06:56
HUMIDITÉ
MOYEN
70
MAXI
79
09:57
MINI
61
16:41
LA VITESSE DU VENT
MOYEN
0.4
MAXI
0.8
13:19
WIND GUST
MOYEN
1.1
MAXI
2.2
13:39
DIRECTION DU VENT
PREVAILING
W
63.5%
N
5.6
NE
5.6
E
2.4
SE
0.8
S
1.6
SW
6.3
W
63.5
NW
13.5
PRÉCIPITATIONS
RAIN HOUR
0.0
RAIN DAY
0.0
TEMPÉRATURE (°C)
MINI
13.9
MAXI
22.0
MOYEN
17.8
PRESSION (hpa)
MINI
1011.1
MAXI
1013.4
MOYEN
1012.2
DEVICE